Frank Wiley Field
KMLS : rendu visible

Aérodrome :











RETROUVEZ-NOUS SUR...

 
LOGIN :

S'inscrire | Disclaimer

   EN    FR    IT 

 









Légende :    VFR   VFR Marginal   IFR   IFR Intensif   IFR Très Intensif
Visi : 
Plafond : 
>= 8 km
>= 3000ft
5 à 8 km
1000 à 3000 ft
1500m à 5 km
500 à 1000 ft
800 à 1500m
200 à 500 ft
< 800m
< 200 ft
Symboles :   Orages  Brouillard  Fortes neiges  Fortes précipitations  Vent > 20 kt






- Altitude de l'aérodrome : 2630 ft
- Code IATA : MLS


KMLS - Frank Wiley Field

DERNIER METAR :
  • 100653Z AUTO 34012KT 10SM SCT075 M15/M18 A3020 RMK AO2 SLP271 T11501178 410281150

METARs EXPIRÉS :
  • 100553Z AUTO 33011KT 10SM BKN090 OVC110 M13/M17 A3020 RMK AO2 SLP272 T11331167 11067 21133 51022
  • 100453Z AUTO 35013KT 10SM OVC110 M12/M16 A3018 RMK AO2 SLP263 T11221161

TAF KMLS
Valide du 10 à 06h jusqu'au 11 à 06h UTC


100530Z 1006/1106 33012KT P6SM VCSH FEW025 OVC060
FM100800 VRB05KT P6SM BKN050
FM101700 26007KT P6SM SCT050



MET'MAP, la Météo Aéronautique d'un coup d'oeil ! - Copyright ORBIFLY Décembre 2007 - Disclaimer

ORBIFLY MET'MAP TEAM :

Programmation & Développement : Alexandra Zaïnal
Sur une idée originale de : Baudouin d'Aumeries
Assistance à la programmation : Marc-Olivier Méhu
Soutien technique & logistique : Manuel Goepfert

Contact : metmap@orbifly.com




SOURCES & CREDITS :

   NOAA       Earth
Advisory